Clinton, KY (42031)

9:53 AM CDT on October 23, 2014 (GMT -0500)
Eastern Hickman County | Change Station
CLOSE
Current Station
Personal Weather Station
Location: Wingo, KY
Elevation: 466 ft
Nearby Weather Stations

Elev 466 ft 36.63 °N, 88.83 °W | Updated 5 minutes ago

Clear
Clear
61.0 °F
Feels Like 61.0 °F
N
2.7
Wind Variable Wind from ENE

Today
High -- | Low -- °F
--% Chance of Precip.
Yesterday
High -- | Low -- °F
Precip. -- in
7:10 AM 6:09 PM
Waning Crescent, 0% visible
Pressure 30.24 in
Visibility 10.0 miles
Clouds Clear
Dew Point 49 °F
Humidity 64%
Rainfall 0.00 in
Snow Depth Not available.
UV 2 out of 12
Pollen 1.50 out of 12
Air Quality Not available.
Flu Activity Sporadic
METAR KUCY 231435Z AUTO 00000KT 10SM CLR 09/06 A3024 RMK

More Conditions Fewer Conditions

Pressure 30.24 in
Visibility 10.0 miles
Clouds Clear
Dew Point 49 °F
Humidity 64%
Rainfall 0.00 in
Snow Depth Not available.
UV 2 out of 12
Pollen 1.50 out of 12
Air Quality Not available.
Flu Activity Sporadic
METAR KUCY 231435Z AUTO 00000KT 10SM CLR 09/06 A3024 RMK

More Conditions Fewer Conditions

10-Day Weather Forecast

Almanac

Astronomy

Oct. 23, 2014 Rise Set
Actual Time 7:10 AM CDT 6:09 PM CDT
Civil Twilight 6:44 AM CDT 6:35 PM CDT
Nautical Twilight 6:14 AM CDT 7:05 PM CDT
Astronomical Twilight 5:44 AM CDT 7:35 PM CDT
Moon 6:51 AM CDT 6:10 PM CDT
Length of Visible Light 11h 51m
Length of Day
10h 58m
Tomorrow will be 2m 9s shorter.
Waning Crescent, 0% of the Moon is Illuminated
Today
Waning Crescent
Oct 23
New
Oct 30
First Quarter
Nov 6
Full
Nov 14
Last Quarter

Today's Extremes

State Highs State Lows

Community

WunderPhotos

Upload Photos

1,764,272 photos uploaded!

WunderBlogs® & News

Nearby

Snow Depth

Station Depth Elevation
No new snow has been reported.

Earthquake Activity

City Distance Mag. Time & Date
No recent earthquake activity has been reported nearby.
Minimum magnitude displayed is 2.5.

Coastal Water Temperatures

Place Temperature
No Stations Reporting

Nearby Weather Stations